Time;durP1;ratioP1;P1;durP2;ratioP2;P2;SDS_P1;SDS_P2;PMS_P1;PMS_P2;Temp;Humidity;BMP_temperature;BMP_pressure;BME280_temperature;BME280_humidity;BME280_pressure;Samples;Min_cycle;Max_cycle;Signal;HPM_P1;HPM_P2
2021/03/25 00:00:51;;;;;;;5.45;3.33;;;;;;;;;;4947261;28;20035;-80
2021/03/25 00:03:18;;;;;;;8.15;3.10;;;7.80;47.00;;;;;;4938052;29;20119;-82
2021/03/25 00:05:44;;;;;;;13.27;2.28;;;;;;;;;;4946583;28;20050;-81
2021/03/25 00:08:17;;;;;;;7.07;2.85;;;7.90;47.40;;;;;;4939386;28;20043;-81
2021/03/25 00:10:43;;;;;;;10.18;2.45;;;8.00;47.20;;;;;;4940635;29;20509;-81
2021/03/25 00:13:10;;;;;;;3.65;2.30;;;;;;;;;;4945543;29;20035;-81
2021/03/25 00:15:36;;;;;;;9.38;3.58;;;;;;;;;;4933795;29;20058;-82
2021/03/25 00:18:02;;;;;;;11.02;3.38;;;;;;;;;;4938481;29;20031;-81
2021/03/25 00:20:28;;;;;;;6.65;2.60;;;;;;;;;;4934658;29;20481;-82
2021/03/25 00:22:54;;;;;;;4.68;2.35;;;;;;;;;;4935222;29;20508;-81
2021/03/25 00:25:25;;;;;;;5.45;2.95;;;8.20;47.30;;;;;;4938904;28;20028;-81
2021/03/25 00:27:51;;;;;;;5.38;2.80;;;;;;;;;;4939612;29;20038;-81
2021/03/25 00:30:19;;;;;;;2.90;2.17;;;;;;;;;;4941452;29;20114;-82
2021/03/25 00:32:45;;;;;;;6.50;2.67;;;;;;;;;;4950946;29;20038;-80
2021/03/25 00:35:13;;;;;;;8.63;4.05;;;8.40;45.10;;;;;;4941236;28;20114;-81
2021/03/25 00:37:39;;;;;;;7.57;2.95;;;8.10;45.50;;;;;;4943702;28;20027;-81
2021/03/25 00:40:07;;;;;;;6.15;2.53;;;7.90;46.00;;;;;;4943213;29;20031;-81
2021/03/25 00:42:33;;;;;;;3.97;2.42;;;;;;;;;;4942884;29;20030;-80
2021/03/25 00:44:59;;;;;;;10.38;2.65;;;;;;;;;;4936919;29;20039;-81
2021/03/25 00:47:25;;;;;;;3.40;2.03;;;;;;;;;;4947018;29;20122;-81
2021/03/25 00:49:51;;;;;;;11.90;2.72;;;;;;;;;;4946295;29;20507;-81
2021/03/25 00:52:17;;;;;;;6.53;2.90;;;;;;;;;;4946983;28;20030;-80
2021/03/25 00:54:43;;;;;;;4.80;2.88;;;;;;;;;;4942599;29;20034;-81
2021/03/25 00:57:09;;;;;;;7.40;2.85;;;;;;;;;;4941611;29;20501;-81
2021/03/25 00:59:35;;;;;;;9.10;2.67;;;;;;;;;;4937776;29;20042;-81
2021/03/25 01:02:01;;;;;;;4.65;2.20;;;;;;;;;;4940500;29;20027;-82
2021/03/25 01:04:27;;;;;;;6.13;2.58;;;;;;;;;;4948225;28;20485;-81
2021/03/25 01:06:53;;;;;;;5.78;2.50;;;;;;;;;;4943760;28;20035;-81
2021/03/25 01:09:26;;;;;;;4.78;2.08;;;7.40;46.70;;;;;;4941513;29;20468;-81
2021/03/25 01:11:52;;;;;;;4.60;1.85;;;7.40;48.30;;;;;;4941954;28;20039;-81
2021/03/25 01:14:20;;;;;;;8.65;2.95;;;7.60;48.30;;;;;;4937166;28;20035;-82
2021/03/25 01:16:47;;;;;;;3.42;2.15;;;7.60;48.30;;;;;;4948621;29;20031;-82
2021/03/25 01:19:16;;;;;;;4.53;2.15;;;;;;;;;;4941631;29;20062;-81
2021/03/25 01:21:42;;;;;;;5.00;2.55;;;;;;;;;;4942369;29;20043;-81
2021/03/25 01:24:09;;;;;;;4.80;2.70;;;7.60;46.60;;;;;;4939756;29;20401;-82
2021/03/25 01:26:36;;;;;;;9.02;3.83;;;;;;;;;;4939380;28;20649;-80
2021/03/25 01:29:02;;;;;;;5.55;3.22;;;;;;;;;;4940319;29;20518;-80
2021/03/25 01:31:29;;;;;;;6.97;2.78;;;;;;;;;;4938211;29;20050;-81
2021/03/25 01:33:54;;;;;;;8.02;3.53;;;7.60;61.70;;;;;;4941380;29;20082;-81
2021/03/25 01:36:21;;;;;;;6.53;2.92;;;;;;;;;;4943996;29;20031;-80
2021/03/25 01:38:47;;;;;;;5.22;2.83;;;;;;;;;;4938268;28;20027;-80
2021/03/25 01:41:13;;;;;;;6.88;2.65;;;;;;;;;;4940265;29;20611;-81
2021/03/25 01:43:41;;;;;;;4.88;3.17;;;7.50;46.80;;;;;;4934516;28;20031;-82
2021/03/25 01:46:07;;;;;;;8.80;3.35;;;;;;;;;;4945279;29;20085;-80
2021/03/25 01:48:38;;;;;;;4.90;2.50;;;7.30;47.20;;;;;;4946691;28;20030;-81
2021/03/25 01:51:23;;;;;;;10.65;2.97;;;7.30;47.20;;;;;;4938607;29;20036;-80
2021/03/25 01:54:10;;;;;;;3.83;3.00;;;7.30;46.30;;;;;;4937089;28;20035;-81
2021/03/25 01:56:54;;;;;;;6.25;3.20;;;;;;;;;;4935475;29;20031;-81
2021/03/25 01:59:38;;;;;;;8.23;3.47;;;7.20;54.20;;;;;;4944637;29;20040;-81
2021/03/25 02:02:10;;;;;;;3.35;2.45;;;;;;;;;;4938248;29;20071;-81
2021/03/25 02:04:52;;;;;;;4.22;2.30;;;;;;;;;;4939626;28;20034;-81
2021/03/25 02:07:47;;;;;;;4.63;2.50;;;6.90;47.70;;;;;;4940542;29;20106;-81
2021/03/25 02:10:19;;;;;;;5.18;1.77;;;7.10;69.30;;;;;;4941044;29;20496;-80
2021/03/25 02:13:07;;;;;;;3.28;1.92;;;6.90;47.50;;;;;;4941054;29;20071;-81
2021/03/25 02:15:38;;;;;;;5.53;2.30;;;7.00;47.70;;;;;;4940802;29;20078;-81
2021/03/25 02:18:13;;;;;;;8.07;2.92;;;6.90;60.40;;;;;;4939159;29;20027;-81
2021/03/25 02:21:04;;;;;;;5.82;2.70;;;7.20;47.90;;;;;;4945246;29;20401;-81
2021/03/25 02:24:17;;;;;;;9.07;3.80;;;7.20;48.10;;;;;;4937829;29;20019;-81
2021/03/25 02:26:48;;;;;;;4.90;2.38;;;7.30;48.10;;;;;;4951898;28;20035;-80
2021/03/25 02:29:38;;;;;;;7.38;2.75;;;7.40;48.00;;;;;;4934219;29;20023;-80
2021/03/25 02:32:22;;;;;;;4.15;2.13;;;7.30;48.30;;;;;;4939269;29;20062;-81
2021/03/25 02:34:51;;;;;;;4.90;2.72;;;7.20;47.70;;;;;;4937994;29;20378;-81
2021/03/25 02:37:28;;;;;;;8.60;4.55;;;7.20;47.00;;;;;;4940461;29;20425;-81
2021/03/25 02:40:21;;;;;;;7.10;4.18;;;7.20;45.70;;;;;;4940806;29;20030;-80
2021/03/25 02:42:49;;;;;;;7.80;3.88;;;;;;;;;;4944681;29;20039;-81
2021/03/25 02:45:24;;;;;;;12.63;5.97;;;;;;;;;;4935370;29;20031;-81
2021/03/25 02:47:55;;;;;;;9.88;4.28;;;6.80;46.40;;;;;;4947689;29;20575;-81
2021/03/25 02:50:28;;;;;;;4.70;4.30;;;6.90;46.10;;;;;;4957250;28;20147;-81
2021/03/25 02:52:59;;;;;;;7.93;3.55;;;6.80;46.50;;;;;;4944571;28;20036;-81
2021/03/25 02:55:26;;;;;;;9.05;3.20;;;6.70;46.60;;;;;;4937483;29;20101;-81
2021/03/25 02:57:55;;;;;;;5.80;3.20;;;;;;;;;;4944200;28;20251;-81
2021/03/25 03:00:26;;;;;;;6.93;3.25;;;7.20;45.40;;;;;;4946153;28;20130;-81
2021/03/25 03:03:00;;;;;;;11.75;4.43;;;7.10;46.40;;;;;;4935760;28;20397;-80
2021/03/25 03:05:28;;;;;;;16.52;6.10;;;6.90;46.20;;;;;;4947193;28;20043;-80
2021/03/25 03:08:06;;;;;;;7.13;4.63;;;6.70;46.90;;;;;;4946292;29;20031;-80
2021/03/25 03:10:39;;;;;;;4.97;2.75;;;6.70;47.70;;;;;;4947177;28;20510;-80
2021/03/25 03:13:08;;;;;;;5.00;2.88;;;6.90;47.90;;;;;;4947938;29;20035;-81
2021/03/25 03:15:54;;;;;;;5.50;2.58;;;6.80;47.50;;;;;;4948026;29;20027;-81
2021/03/25 03:18:31;;;;;;;3.47;2.05;;;6.70;47.70;;;;;;4939293;28;20042;-80
2021/03/25 03:20:57;;;;;;;7.93;3.08;;;;;;;;;;4953617;28;20039;-81
2021/03/25 03:23:25;;;;;;;11.52;3.33;;;7.00;46.70;;;;;;4935213;29;20481;-80
2021/03/25 03:25:53;;;;;;;3.90;2.70;;;6.90;46.90;;;;;;4939932;29;20118;-81
2021/03/25 03:28:44;;;;;;;3.75;1.80;;;6.80;47.10;;;;;;4937868;29;20038;-81
2021/03/25 03:31:17;;;;;;;3.25;2.75;;;6.80;47.90;;;;;;4939234;29;20046;-83
2021/03/25 03:33:48;;;;;;;4.97;2.55;;;6.60;47.30;;;;;;4938230;29;20402;-81
2021/03/25 03:36:17;;;;;;;3.58;2.33;;;6.50;46.80;;;;;;4937564;29;20038;-80
2021/03/25 03:38:48;;;;;;;8.20;3.45;;;;;;;;;;4935371;29;20027;-81
2021/03/25 03:41:16;;;;;;;12.23;4.07;;;6.50;47.10;;;;;;4938502;29;20464;-80
2021/03/25 03:43:44;;;;;;;7.97;2.65;;;6.50;47.90;;;;;;4945483;28;20027;-80
2021/03/25 03:46:16;;;;;;;7.88;2.60;;;6.60;48.70;;;;;;4940075;28;20024;-80
2021/03/25 03:48:55;;;;;;;4.53;3.08;;;6.80;48.10;;;;;;4939913;29;20424;-81
2021/03/25 03:51:31;;;;;;;6.57;3.15;;;7.20;47.20;;;;;;4942339;29;20039;-81
2021/03/25 03:54:00;;;;;;;6.63;2.40;;;6.70;68.70;;;;;;4936329;29;20028;-81
2021/03/25 03:56:45;;;;;;;5.25;3.15;;;7.00;47.20;;;;;;4948424;28;20046;-81
2021/03/25 03:59:18;;;;;;;4.72;2.80;;;7.00;61.70;;;;;;4949965;28;20030;-80
2021/03/25 04:02:12;;;;;;;4.75;1.77;;;6.80;68.80;;;;;;4945542;29;20035;-82
2021/03/25 04:04:42;;;;;;;8.35;3.03;;;6.80;70.30;;;;;;4937960;28;20031;-81
2021/03/25 04:07:16;;;;;;;3.22;1.55;;;4.50;45.20;;;;;;4943391;29;20583;-81
2021/03/25 04:09:49;;;;;;;5.47;2.50;;;6.30;63.60;;;;;;4946654;29;20543;-81
2021/03/25 04:12:21;;;;;;;5.28;1.80;;;6.60;49.30;;;;;;4942954;28;20091;-81
2021/03/25 04:14:50;;;;;;;8.07;3.78;;;7.20;67.80;;;;;;4938524;29;20032;-81
2021/03/25 04:17:24;;;;;;;5.95;2.90;;;6.20;48.60;;;;;;4943117;28;20027;-80
2021/03/25 04:19:52;;;;;;;5.28;2.80;;;7.20;47.20;;;;;;4933887;29;20054;-82
2021/03/25 04:22:30;;;;;;;6.65;4.38;;;7.10;67.50;;;;;;4945499;29;20023;-81
2021/03/25 04:25:08;;;;;;;10.95;3.10;;;7.00;45.70;;;;;;4943811;29;20031;-82
2021/03/25 04:27:40;;;;;;;4.40;2.72;;;7.00;58.50;;;;;;4943022;29;20023;-80
2021/03/25 04:30:09;;;;;;;10.02;4.32;;;6.40;50.70;;;;;;4942430;29;20070;-81
2021/03/25 04:32:36;;;;;;;12.20;3.63;;;;;;;;;;4947404;28;20461;-81
2021/03/25 04:35:03;;;;;;;4.80;2.63;;;;;;;;;;4938508;29;20042;-80
2021/03/25 04:37:30;;;;;;;5.07;3.15;;;;;;;;;;4944719;29;20102;-81
2021/03/25 04:39:58;;;;;;;9.33;3.07;;;6.40;46.50;;;;;;4942948;29;20111;-80
2021/03/25 04:42:24;;;;;;;2.85;1.65;;;;;;;;;;4941005;29;20284;-80
2021/03/25 04:44:59;;;;;;;5.93;2.65;;;6.20;46.80;;;;;;4950893;29;20497;-79
2021/03/25 04:47:36;;;;;;;8.15;3.40;;;6.30;47.90;;;;;;4938455;28;20142;-81
2021/03/25 04:50:14;;;;;;;6.95;3.03;;;7.60;50.00;;;;;;4946250;29;20114;-81
2021/03/25 04:52:40;;;;;;;7.18;2.72;;;;;;;;;;4944223;29;20481;-81
2021/03/25 04:55:11;;;;;;;12.48;2.40;;;6.80;48.60;;;;;;4941537;29;20417;-81
2021/03/25 04:57:41;;;;;;;7.65;3.22;;;6.70;69.70;;;;;;4943821;29;20115;-81
2021/03/25 05:00:17;;;;;;;3.20;1.98;;;7.10;68.50;;;;;;4952743;28;20031;-80
2021/03/25 05:02:43;;;;;;;7.53;3.45;;;;;;;;;;4942485;28;20034;-81
2021/03/25 05:05:17;;;;;;;7.32;2.38;;;4.50;45.10;;;;;;4936799;28;20061;-80
2021/03/25 05:07:46;;;;;;;5.15;3.05;;;6.50;46.60;;;;;;4948287;28;20028;-81
2021/03/25 05:10:19;;;;;;;6.32;4.35;;;6.30;46.50;;;;;;4941711;28;20094;-81
2021/03/25 05:12:45;;;;;;;7.03;3.70;;;;;;;;;;4942244;29;20028;-81
2021/03/25 05:15:13;;;;;;;6.38;2.55;;;;;;;;;;4941364;28;20035;-81
2021/03/25 05:18:05;;;;;;;13.13;3.90;;;5.90;70.80;;;;;;4939746;29;20046;-82
2021/03/25 05:20:47;;;;;;;7.43;3.65;;;5.80;48.80;;;;;;4937756;29;20119;-80
2021/03/25 05:23:32;;;;;;;7.13;3.20;;;6.00;48.00;;;;;;4940845;29;20027;-81
2021/03/25 05:26:03;;;;;;;9.20;2.72;;;6.00;48.10;;;;;;4938828;29;20083;-81
2021/03/25 05:28:38;;;;;;;4.60;2.55;;;5.80;48.60;;;;;;4943619;29;20564;-81
2021/03/25 05:31:09;;;;;;;9.48;3.53;;;5.80;47.90;;;;;;4940048;29;20050;-81
2021/03/25 05:33:35;;;;;;;5.07;2.78;;;6.20;47.70;;;;;;4942375;29;20051;-80
2021/03/25 05:36:07;;;;;;;7.32;2.38;;;6.30;48.80;;;;;;4937981;29;20034;-81
2021/03/25 05:38:33;;;;;;;3.30;2.85;;;6.20;48.50;;;;;;4950659;28;20519;-81
2021/03/25 05:41:02;;;;;;;5.53;2.40;;;6.30;49.10;;;;;;4948138;29;20070;-80
2021/03/25 05:44:09;;;;;;;5.03;3.13;;;6.40;49.80;;;;;;4939241;29;20115;-81
2021/03/25 05:46:57;;;;;;;10.43;2.85;;;6.50;47.70;;;;;;4931099;29;20047;-80
2021/03/25 05:49:34;;;;;;;3.78;2.63;;;6.20;69.80;;;;;;4930250;29;20058;-82
2021/03/25 05:52:21;;;;;;;10.98;2.65;;;6.10;57.60;;;;;;4930072;29;20071;-81
2021/03/25 05:54:57;;;;;;;3.58;2.13;;;6.40;48.30;;;;;;4913991;29;20113;-82
2021/03/25 05:57:34;;;;;;;16.38;2.92;;;6.60;70.20;;;;;;4930146;29;20044;-82
2021/03/25 06:00:41;;;;;;;6.90;3.25;;;6.50;48.20;;;;;;4930241;29;20481;-81
2021/03/25 06:03:12;;;;;;;4.80;3.28;;;6.90;46.80;;;;;;4925566;29;20044;-81
2021/03/25 06:05:38;;;;;;;7.40;3.58;;;;;;;;;;4925111;29;20048;-81
2021/03/25 06:08:04;;;;;;;7.57;3.00;;;;;;;;;;4924533;29;20027;-82
2021/03/25 06:10:33;;;;;;;7.00;2.75;;;;;;;;;;4925403;29;20762;-81
2021/03/25 06:13:16;;;;;;;7.47;3.05;;;6.90;47.40;;;;;;4924322;29;20035;-81
2021/03/25 06:15:45;;;;;;;4.55;3.40;;;;;;;;;;4924727;29;20202;-81
2021/03/25 06:18:19;;;;;;;8.57;3.22;;;6.90;48.10;;;;;;4909879;29;20027;-86
2021/03/25 06:21:06;;;;;;;4.57;3.55;;;;;;;;;;4923960;29;20721;-81
2021/03/25 06:23:56;;;;;;;5.63;3.17;;;6.70;50.00;;;;;;4942794;28;20046;-81
2021/03/25 06:26:27;;;;;;;9.75;3.67;;;7.00;69.80;;;;;;4944797;29;20572;-85
2021/03/25 06:29:15;;;;;;;5.47;3.65;;;7.40;47.40;;;;;;4944346;28;20114;-81
2021/03/25 06:31:41;;;;;;;;;;;;;;;;;;4940797;28;21308;-81
2021/03/25 06:34:07;;;;;;;3.25;3.00;;;;;;;;;;4941446;29;19918;-81
2021/03/25 06:37:10;;;;;;;5.22;3.97;;;7.80;45.80;;;;;;4944673;29;20090;-81
2021/03/25 06:39:36;;;;;;;7.22;3.03;;;;;;;;;;4955771;28;20524;-81
2021/03/25 06:42:02;;;;;;;7.50;2.47;;;;;;;;;;4940942;29;20027;-82
2021/03/25 06:44:48;;;;;;;3.83;2.78;;;8.70;44.90;;;;;;4942874;29;20737;-81
2021/03/25 06:47:33;;;;;;;8.95;3.88;;;8.70;43.90;;;;;;4944068;28;20122;-82
2021/03/25 06:50:02;;;;;;;9.60;4.18;;;8.70;43.60;;;;;;4941736;29;20034;-81
2021/03/25 06:52:48;;;;;;;7.38;3.55;;;8.70;44.10;;;;;;4942919;28;20027;-83
2021/03/25 06:55:22;;;;;;;6.00;2.78;;;8.70;44.50;;;;;;4944290;28;20030;-81
2021/03/25 06:58:04;;;;;;;7.45;3.15;;;8.80;66.10;;;;;;4941538;29;20618;-81
2021/03/25 07:00:35;;;;;;;4.63;3.38;;;9.00;44.50;;;;;;4940880;29;20035;-81
2021/03/25 07:03:05;;;;;;;17.08;3.60;;;9.00;45.20;;;;;;4943469;29;20062;-80
2021/03/25 07:05:33;;;;;;;5.65;3.30;;;9.20;43.90;;;;;;4901175;29;978578;-81
2021/03/25 07:08:02;;;;;;;9.93;4.70;;;;;;;;;;4934283;28;20035;-80
2021/03/25 07:10:28;;;;;;;10.13;5.35;;;;;;;;;;4937659;28;20036;-81
2021/03/25 07:13:03;;;;;;;7.85;3.70;;;10.10;39.60;;;;;;4939472;29;20031;-81
2021/03/25 07:15:29;;;;;;;12.82;5.10;;;;;;;;;;4938742;29;20067;-81
2021/03/25 07:17:55;;;;;;;12.65;3.35;;;;;;;;;;4947212;29;20114;-81
2021/03/25 07:20:28;;;;;;;13.02;4.28;;;;;;;;;;4933611;29;20059;-81
2021/03/25 07:23:11;;;;;;;9.18;3.85;;;10.50;38.90;;;;;;4936100;29;20031;-81
2021/03/25 07:25:40;;;;;;;10.73;4.20;;;11.00;39.10;;;;;;4941410;28;20027;-81
2021/03/25 07:28:22;;;;;;;10.82;4.35;;;12.00;51.20;;;;;;4937915;29;20028;-81
2021/03/25 07:30:51;;;;;;;9.70;4.53;;;12.50;37.60;;;;;;4940357;29;20043;-81
2021/03/25 07:33:25;;;;;;;8.63;3.53;;;16.80;39.30;;;;;;4938621;28;20104;-81
2021/03/25 07:36:09;;;;;;;4.70;2.80;;;14.10;34.60;;;;;;4937433;28;20610;-82
2021/03/25 07:38:41;;;;;;;9.98;5.05;;;15.00;33.50;;;;;;4934835;29;20019;-81
2021/03/25 07:41:31;;;;;;;10.10;4.20;;;15.90;48.50;;;;;;4936306;28;20405;-82
2021/03/25 07:43:58;;;;;;;9.63;4.60;;;;;;;;;;4935837;29;20035;-81
2021/03/25 07:46:27;;;;;;;10.10;3.17;;;17.10;31.40;;;;;;4938852;28;20039;-82
2021/03/25 07:49:08;;;;;;;11.88;4.40;;;17.40;30.40;;;;;;4937783;29;20055;-81
2021/03/25 07:51:48;;;;;;;7.22;4.82;;;17.70;30.00;;;;;;4939065;29;20039;-81
2021/03/25 07:54:23;;;;;;;10.25;4.18;;;18.10;43.10;;;;;;4937800;29;20034;-82
2021/03/25 07:57:05;;;;;;;8.10;4.20;;;17.80;30.20;;;;;;4933669;29;20576;-80
2021/03/25 07:59:31;;;;;;;12.35;4.22;;;;;;;;;;4935773;29;20027;-80
2021/03/25 08:01:57;;;;;;;7.40;4.55;;;;;;;;;;4933390;28;20169;-84
2021/03/25 08:04:31;;;;;;;6.38;3.70;;;18.30;29.00;;;;;;4942898;28;20045;-85
2021/03/25 08:07:05;;;;;;;7.07;3.05;;;17.80;29.50;;;;;;4945975;29;20040;-82
2021/03/25 08:09:42;;;;;;;7.20;2.85;;;17.00;29.30;;;;;;4945927;28;20452;-81
2021/03/25 08:12:08;;;;;;;5.32;2.55;;;;;;;;;;4944796;28;20086;-82
2021/03/25 08:14:35;;;;;;;7.57;3.88;;;16.90;30.00;;;;;;4945828;28;20504;-82
2021/03/25 08:17:30;;;;;;;5.07;3.22;;;17.20;30.20;;;;;;4945063;28;20035;-83
2021/03/25 08:19:56;;;;;;;4.82;2.83;;;;;;;;;;4936037;29;20067;-84
2021/03/25 08:22:22;;;;;;;4.75;2.38;;;;;;;;;;4941506;28;20110;-81
2021/03/25 08:24:48;;;;;;;4.28;2.63;;;;;;;;;;4942105;28;20020;-83
2021/03/25 08:27:25;;;;;;;7.20;2.65;;;19.40;26.80;;;;;;4937433;29;20067;-83
2021/03/25 08:30:19;;;;;;;8.70;2.55;;;20.00;26.40;;;;;;4937769;29;20088;-82
2021/03/25 08:33:18;;;;;;;4.03;1.95;;;20.10;27.20;;;;;;4932645;29;20042;-83
2021/03/25 08:35:49;;;;;;;3.22;2.05;;;20.60;25.80;;;;;;4933544;29;20024;-83
2021/03/25 08:38:33;;;;;;;7.82;2.88;;;20.90;26.10;;;;;;4942270;29;20046;-83
2021/03/25 08:41:04;;;;;;;6.55;2.30;;;21.40;25.30;;;;;;4944658;28;20584;-83
2021/03/25 08:43:40;;;;;;;4.20;1.80;;;21.50;24.80;;;;;;4947035;29;20042;-81
2021/03/25 08:46:07;;;;;;;5.37;2.40;;;;;;;;;;4937745;28;20031;-81
2021/03/25 08:48:42;;;;;;;5.05;2.75;;;21.60;25.30;;;;;;4938334;29;20023;-82
2021/03/25 08:51:19;;;;;;;4.75;2.65;;;21.70;25.80;;;;;;4937632;29;20091;-81
2021/03/25 08:54:03;;;;;;;3.85;2.05;;;21.80;25.80;;;;;;4949751;28;20026;-80
2021/03/25 08:56:40;;;;;;;8.75;2.38;;;22.10;42.40;;;;;;4936931;29;20090;-83
2021/03/25 08:59:27;;;;;;;5.35;2.60;;;22.00;25.50;;;;;;4949941;29;20041;-82
2021/03/25 09:02:10;;;;;;;4.40;2.10;;;21.50;30.50;;;;;;4937716;28;20039;-82
2021/03/25 09:05:05;;;;;;;5.60;2.30;;;21.80;25.50;;;;;;4946470;29;20517;-82
2021/03/25 09:07:33;;;;;;;6.57;3.30;;;21.90;25.90;;;;;;4936974;29;20054;-81
2021/03/25 09:10:27;;;;;;;5.07;2.42;;;22.00;42.40;;;;;;4940091;29;20055;-82
2021/03/25 09:12:53;;;;;;;9.75;3.85;;;;;;;;;;4939945;29;20516;-82
2021/03/25 09:15:22;;;;;;;5.28;2.60;;;;;;;;;;4938944;29;20512;-83
2021/03/25 09:17:54;;;;;;;4.50;2.45;;;;;;;;;;4938474;28;20028;-82
2021/03/25 09:20:30;;;;;;;10.02;2.95;;;21.90;25.80;;;;;;4949916;28;20062;-84
2021/03/25 09:22:58;;;;;;;6.30;3.03;;;22.50;25.30;;;;;;4940980;29;20096;-83
2021/03/25 09:25:27;;;;;;;8.45;3.30;;;;;;;;;;4944561;29;20489;-84
2021/03/25 09:27:56;;;;;;;4.57;2.88;;;;;;;;;;4944649;29;20027;-83
2021/03/25 09:30:22;;;;;;;4.38;2.10;;;;;;;;;;4941811;29;20058;-81
2021/03/25 09:32:48;;;;;;;7.45;3.28;;;;;;;;;;4948180;29;20027;-82
2021/03/25 09:35:38;;;;;;;10.82;2.95;;;23.10;24.40;;;;;;4944537;28;20043;-83
2021/03/25 09:38:04;;;;;;;7.70;2.42;;;;;;;;;;4947198;28;20033;-83
2021/03/25 09:40:46;;;;;;;15.75;2.67;;;22.90;25.00;;;;;;4942769;28;20031;-82
2021/03/25 09:43:21;;;;;;;7.65;2.53;;;23.40;23.80;;;;;;4942733;28;20132;-84
2021/03/25 09:45:48;;;;;;;6.10;2.92;;;;;;;;;;4944751;28;20035;-82
2021/03/25 09:48:23;;;;;;;7.80;3.08;;;23.30;24.00;;;;;;4939650;29;20115;-82
2021/03/25 09:51:21;;;;;;;5.43;2.90;;;25.00;25.50;;;;;;4950478;28;20039;-81
2021/03/25 09:53:53;;;;;;;10.00;2.63;;;22.90;25.10;;;;;;4928170;29;20047;-82
2021/03/25 09:56:32;;;;;;;4.07;2.50;;;23.10;25.20;;;;;;4933707;29;20087;-84
2021/03/25 09:58:59;;;;;;;7.90;3.97;;;23.40;24.20;;;;;;4945475;29;20032;-84
2021/03/25 10:01:58;;;;;;;;;;;23.70;24.20;;;;;;4945497;28;20401;-82
2021/03/25 10:04:25;;;;;;;6.00;2.25;;;;;;;;;;4902280;29;20308;-86
2021/03/25 10:07:11;;;;;;;5.80;2.90;;;24.20;23.70;;;;;;4916282;29;20060;-95
2021/03/25 10:09:54;;;;;;;3.83;1.77;;;24.20;22.60;;;;;;4905770;29;20048;-82
2021/03/25 10:12:52;;;;;;;4.80;2.17;;;24.80;33.30;;;;;;4894159;29;20036;-81
2021/03/25 10:15:34;;;;;;;6.18;2.80;;;;;;;;;;4898375;29;20044;-82
2021/03/25 10:18:16;;;;;;;5.72;2.28;;;24.90;22.80;;;;;;4899040;29;20071;-81
2021/03/25 10:20:59;;;;;;;4.40;2.22;;;25.50;37.10;;;;;;4907240;29;20051;-80
2021/03/25 10:23:31;;;;;;;7.38;2.80;;;25.00;22.90;;;;;;4904190;29;20060;-81
2021/03/25 10:26:09;;;;;;;6.25;2.25;;;25.20;22.20;;;;;;4886391;29;20036;-81
2021/03/25 10:28:45;;;;;;;10.05;1.83;;;25.60;22.40;;;;;;4904846;29;20583;-81
2021/03/25 10:31:26;;;;;;;6.68;2.28;;;25.00;22.90;;;;;;4903573;29;20043;-81
2021/03/25 10:34:00;;;;;;;8.52;2.58;;;24.70;23.70;;;;;;4903703;29;20040;-81
2021/03/25 10:36:40;;;;;;;3.45;1.92;;;24.80;23.30;;;;;;4890707;29;20576;-82
2021/03/25 10:39:15;;;;;;;4.07;2.60;;;24.80;23.30;;;;;;4901573;29;20049;-83
2021/03/25 10:41:41;;;;;;;5.82;2.60;;;;;;;;;;4950504;28;20035;-83
2021/03/25 10:44:37;;;;;;;9.52;2.35;;;25.00;23.40;;;;;;4943642;28;20401;-84
2021/03/25 10:47:06;;;;;;;4.25;1.90;;;24.90;23.40;;;;;;4935810;29;20032;-81
2021/03/25 10:49:59;;;;;;;5.43;2.05;;;25.00;23.80;;;;;;4940933;29;20038;-81
2021/03/25 10:52:38;;;;;;;4.53;1.92;;;24.80;23.90;;;;;;4939100;28;20116;-82
2021/03/25 10:55:18;;;;;;;6.47;2.55;;;24.40;23.90;;;;;;4938086;29;20028;-80
2021/03/25 10:57:48;;;;;;;5.15;1.88;;;24.20;25.40;;;;;;4940486;29;20043;-82
2021/03/25 11:00:19;;;;;;;6.97;2.80;;;23.80;25.40;;;;;;4947259;29;20047;-82
2021/03/25 11:02:45;;;;;;;11.15;2.60;;;;;;;;;;4944857;28;20034;-83
2021/03/25 11:05:21;;;;;;;5.35;2.97;;;23.10;26.80;;;;;;4933537;28;20032;-83
2021/03/25 11:07:50;;;;;;;5.20;2.85;;;22.80;27.90;;;;;;4944898;29;20037;-82
2021/03/25 11:10:19;;;;;;;10.18;2.90;;;;;;;;;;4937115;28;20035;-81
2021/03/25 11:12:45;;;;;;;4.95;1.88;;;;;;;;;;4935860;29;20043;-83
2021/03/25 11:15:38;;;;;;;6.30;2.92;;;22.10;27.40;;;;;;4938200;29;20122;-82
2021/03/25 11:18:38;;;;;;;6.22;3.28;;;21.90;26.70;;;;;;4935575;29;20551;-82
2021/03/25 11:21:06;;;;;;;4.97;2.67;;;21.80;27.90;;;;;;4937785;29;20027;-82
2021/03/25 11:23:32;;;;;;;4.53;2.63;;;;;;;;;;4935328;29;20484;-82
2021/03/25 11:26:00;;;;;;;7.32;3.50;;;21.40;26.40;;;;;;4934572;28;20036;-82
2021/03/25 11:28:28;;;;;;;3.97;2.53;;;21.40;26.30;;;;;;4943227;29;20024;-81
2021/03/25 11:31:25;;;;;;;8.30;2.92;;;21.50;26.40;;;;;;4940552;28;20130;-81
2021/03/25 11:33:52;;;;;;;5.05;2.80;;;21.30;29.00;;;;;;4937951;29;20093;-81
2021/03/25 11:36:42;;;;;;;7.68;3.72;;;21.50;27.60;;;;;;4937762;29;20079;-82
2021/03/25 11:39:28;;;;;;;5.78;3.17;;;21.60;44.70;;;;;;4939280;29;20587;-81
2021/03/25 11:41:59;;;;;;;4.63;3.30;;;22.40;28.30;;;;;;4938640;29;20027;-82
2021/03/25 11:44:42;;;;;;;6.80;3.28;;;21.20;27.70;;;;;;4944576;28;20915;-82
2021/03/25 11:47:21;;;;;;;9.05;3.13;;;21.20;28.70;;;;;;4933441;28;20405;-83
2021/03/25 11:49:47;;;;;;;6.90;2.60;;;;;;;;;;4944497;29;20042;-82
2021/03/25 11:52:13;;;;;;;6.63;3.00;;;;;;;;;;4939080;28;20119;-82
2021/03/25 11:54:42;;;;;;;5.88;3.03;;;20.60;29.40;;;;;;4943615;29;20168;-82
2021/03/25 11:57:08;;;;;;;4.63;2.05;;;;;;;;;;4936241;29;20031;-82
2021/03/25 11:59:39;;;;;;;7.75;1.92;;;20.20;30.30;;;;;;4945659;28;20020;-83
2021/03/25 12:02:08;;;;;;;7.85;2.65;;;;;;;;;;4936321;29;20473;-82
2021/03/25 12:04:34;;;;;;;6.28;2.75;;;;;;;;;;4940006;29;20087;-82
2021/03/25 12:07:10;;;;;;;6.85;4.03;;;20.10;29.60;;;;;;4941850;29;20051;-83
2021/03/25 12:09:36;;;;;;;7.00;2.25;;;;;;;;;;4936221;29;20532;-82
2021/03/25 12:12:03;;;;;;;7.38;2.22;;;;;;;;;;4930943;28;20046;-82
2021/03/25 12:14:29;;;;;;;4.78;2.13;;;;;;;;;;4946386;29;20408;-80
2021/03/25 12:16:59;;;;;;;7.18;2.45;;;20.20;30.10;;;;;;4933479;28;20031;-81
2021/03/25 12:19:25;;;;;;;5.20;1.88;;;;;;;;;;4944989;29;20027;-82
2021/03/25 12:21:51;;;;;;;5.40;2.72;;;;;;;;;;4941419;28;20114;-82
2021/03/25 12:24:17;;;;;;;5.18;1.88;;;;;;;;;;4937187;28;20417;-82
2021/03/25 12:26:44;;;;;;;8.20;1.77;;;;;;;;;;4939140;29;20019;-82
2021/03/25 12:29:11;;;;;;;6.30;2.22;;;20.40;29.50;;;;;;4944869;29;20035;-82
2021/03/25 12:31:41;;;;;;;5.53;2.20;;;20.40;28.50;;;;;;4939756;28;20032;-82
2021/03/25 12:34:07;;;;;;;5.93;2.08;;;;;;;;;;4945595;29;20033;-82
2021/03/25 12:36:33;;;;;;;8.98;3.25;;;;;;;;;;4939424;29;20036;-82
2021/03/25 12:39:00;;;;;;;5.15;2.40;;;;;;;;;;4950034;28;20386;-82
2021/03/25 12:41:25;;;;;;;9.80;2.42;;;;;;;;;;4941357;28;20074;-82
2021/03/25 12:43:51;;;;;;;7.93;2.60;;;;;;;;;;4937527;28;20058;-83
2021/03/25 12:46:17;;;;;;;4.68;1.95;;;;;;;;;;4947128;29;20042;-82
2021/03/25 12:48:43;;;;;;;3.95;2.40;;;;;;;;;;4942976;29;20520;-82
2021/03/25 12:51:13;;;;;;;3.50;1.60;;;20.00;28.40;;;;;;4946958;28;20050;-82
2021/03/25 12:53:41;;;;;;;3.63;2.30;;;20.10;27.50;;;;;;4941148;28;20554;-82
2021/03/25 12:56:11;;;;;;;3.80;2.05;;;;;;;;;;4945165;29;20598;-82
2021/03/25 12:58:38;;;;;;;5.38;1.90;;;20.10;28.60;;;;;;4946473;29;20020;-83
2021/03/25 13:01:13;;;;;;;4.53;2.13;;;20.10;28.80;;;;;;4944408;29;20024;-82
2021/03/25 13:03:40;;;;;;;5.18;1.73;;;19.90;29.10;;;;;;4945443;28;20493;-82
2021/03/25 13:06:07;;;;;;;3.00;1.73;;;19.80;28.10;;;;;;4940492;29;20055;-82
2021/03/25 13:08:34;;;;;;;3.90;1.70;;;;;;;;;;4941600;28;20038;-82
2021/03/25 13:11:00;;;;;;;3.95;2.28;;;19.60;28.40;;;;;;4935871;28;20031;-81
2021/03/25 13:13:26;;;;;;;3.50;1.45;;;;;;;;;;4943406;29;20031;-83
2021/03/25 13:15:53;;;;;;;5.40;1.48;;;;;;;;;;4943427;29;20582;-81
2021/03/25 13:18:19;;;;;;;2.95;1.27;;;19.50;27.20;;;;;;4948984;29;20024;-81
2021/03/25 13:20:46;;;;;;;1.42;0.77;;;;;;;;;;4946424;28;20040;-84
2021/03/25 13:23:12;;;;;;;6.88;2.10;;;;;;;;;;4943463;28;20392;-84
2021/03/25 13:25:40;;;;;;;1.88;1.20;;;19.50;28.70;;;;;;4946185;28;20020;-80
2021/03/25 13:28:07;;;;;;;2.78;1.10;;;19.40;27.30;;;;;;4947136;28;20484;-82
2021/03/25 13:30:34;;;;;;;3.30;1.75;;;;;;;;;;4948334;28;20046;-88
2021/03/25 13:33:00;;;;;;;3.05;1.90;;;;;;;;;;4947376;28;20397;-81
2021/03/25 13:35:28;;;;;;;2.33;1.48;;;19.00;29.40;;;;;;4948746;29;20024;-84
2021/03/25 13:37:55;;;;;;;2.10;1.58;;;;;;;;;;4945353;28;20031;-82
2021/03/25 13:40:24;;;;;;;2.90;1.45;;;18.50;29.80;;;;;;4946031;29;20082;-82
2021/03/25 13:42:50;;;;;;;1.23;0.98;;;;;;;;;;4941600;29;20046;-82
2021/03/25 13:45:17;;;;;;;1.45;1.00;;;;;;;;;;4946373;28;20072;-81
2021/03/25 13:47:43;;;;;;;3.38;1.48;;;18.40;30.20;;;;;;4946890;28;20039;-82
2021/03/25 13:50:13;;;;;;;1.73;1.23;;;18.50;30.10;;;;;;4935071;28;20040;-82
2021/03/25 13:52:39;;;;;;;2.95;0.85;;;;;;;;;;4941883;29;20171;-81
2021/03/25 13:55:07;;;;;;;1.60;0.75;;;18.70;32.80;;;;;;4940622;29;20127;-82
2021/03/25 13:57:33;;;;;;;0.60;0.50;;;;;;;;;;4942014;29;20050;-82
2021/03/25 13:59:59;;;;;;;0.75;0.55;;;;;;;;;;4946153;28;20027;-82